WetterOnline ( http://www.wetteronline.de )

Wetter aktuell Pforzheim

Aktuelles Wetter: Mühlacker (245m)

6-stündlich | Neueste Meldungen
Ortszeit Temperatur Wetter
Fr, 19.01. 7:00 3.7° C Sprühregen
Fr, 19.01. 1:00 7.0° C Sprühregen
Do, 18.01. 19:00 7.5° C bewölkt
Do, 18.01. 13:00 9.9° C Sprühregen
Do, 18.01. 7:00 3.0° C Sprühregen
Do, 18.01. 1:00 2.1° C leichter Regen
Mi, 17.01. 19:00 2.9° C Regen
Mi, 17.01. 13:00 2.4° C bedeckt
Ortszeit Temperatur Wetter
Fr, 19.01. 12:00 5.5° C leicht bewölkt
Fr, 19.01. 11:50 5.5° C leicht bewölkt
Fr, 19.01. 11:40 5.3° C fast wolkenlos
Fr, 19.01. 11:30 5.3° C leicht bewölkt
Fr, 19.01. 11:20 5.3° C leicht bewölkt
Fr, 19.01. 11:10 5.4° C leicht bewölkt
Fr, 19.01. 11:00 5.1° C wolkenlos
Fr, 19.01. 10:30 4.6° C fast wolkenlos
Fr, 19.01. 10:00 4.0° C wolkenlos
Fr, 19.01. 9:30 4.1° C leicht bewölkt
Fr, 19.01. 9:00 4.0° C Sprühregen
Ortszeit Relative Feuchte Sichtweite
Fr, 19.01. 7:00 85% 13 km
Fr, 19.01. 1:00 77% 30 km
Do, 18.01. 19:00 82% 45 km
Do, 18.01. 13:00 65% 16 km
Do, 18.01. 7:00 89% 30 km
Do, 18.01. 1:00 91% 16 km
Mi, 17.01. 19:00 81% 25 km
Mi, 17.01. 13:00 76% 70 km
Ortszeit Relative Feuchte Sichtweite
Fr, 19.01. 12:00 67% 17 km
Fr, 19.01. 11:50 67% -
Fr, 19.01. 11:40 66% -
Fr, 19.01. 11:30 65% 24 km
Fr, 19.01. 11:20 65% -
Fr, 19.01. 11:10 66% -
Fr, 19.01. 11:00 65% 30 km
Fr, 19.01. 10:30 70% 26 km
Fr, 19.01. 10:00 76% 40 km
Fr, 19.01. 9:30 72% 45 km
Fr, 19.01. 9:00 75% 65 km
Ortszeit Niederschlagsmenge Niederschlagsart
Fr, 19.01. 7:00 2 l/m2 in 12 Std. Regen
Fr, 19.01. 1:00 0.1 l/m2 in 6 Std. Regen
Do, 18.01. 19:00 6 l/m2 in 12 Std. Regen
Do, 18.01. 13:00 0.5 l/m2 in 6 Std. Regen
Do, 18.01. 7:00 1 l/m2 in 12 Std. Regen
Do, 18.01. 1:00 0.2 l/m2 in 6 Std. Schnee, Regen
Mi, 17.01. 19:00 3 l/m2 in 12 Std. Schnee, Regen
Mi, 17.01. 13:00 0.1 l/m2 in 6 Std. Schnee, Regen
Ortszeit Niederschlagsmenge Niederschlagsart
Fr, 19.01. 12:00 0.0 l/m2 in 1 Std. -
Fr, 19.01. 11:50 keine Meldung -
Fr, 19.01. 11:40 keine Meldung -
Fr, 19.01. 11:30 0.0 l/m2 in 1 Std. -
Fr, 19.01. 11:20 keine Meldung -
Fr, 19.01. 11:10 keine Meldung -
Fr, 19.01. 11:00 0.0 l/m2 in 1 Std. -
Fr, 19.01. 10:30 0.0 l/m2 in 1 Std. -
Fr, 19.01. 10:00 0.1 l/m2 in 1 Std. Regen
Fr, 19.01. 9:30 0.1 l/m2 in 1 Std. Schnee
Fr, 19.01. 9:00 0.1 l/m2 in 1 Std. Regen
Ortszeit Stärke Spitze Richtung
km/h Bft. km/h Grad Sektor
Fr, 19.01. 7:00 22 4 48 270° W
Fr, 19.01. 1:00 14 3 40 260° W
Do, 18.01. 19:00 18 3 72 250° W
Do, 18.01. 13:00 48 6 80 260° W
Do, 18.01. 7:00 7 2 43 130° SO
Do, 18.01. 1:00 18 3 43 260° W
Mi, 17.01. 19:00 18 3 50 270° W
Mi, 17.01. 13:00 24 4 48 260° W
Ortszeit Stärke Spitze Richtung
km/h Bft. km/h Grad Sektor
Fr, 19.01. 12:00 25 4 47 260° W
Fr, 19.01. 11:50 25 4 - 260° W
Fr, 19.01. 11:40 25 4 - 260° W
Fr, 19.01. 11:30 25 4 47 270° W
Fr, 19.01. 11:20 25 4 - 270° W
Fr, 19.01. 11:10 22 4 - 260° W
Fr, 19.01. 11:00 24 4 43 260° W
Fr, 19.01. 10:30 24 4 43 260° W
Fr, 19.01. 10:00 18 3 50 270° W
Fr, 19.01. 9:30 25 4 43 260° W
Fr, 19.01. 9:00 24 4 39 260° W
Ortszeit Untergrenze Bedeckung Gattung
total tief tief mittel hoch
Fr, 19.01. 7:00 510 m 5/8 5/8 - - -
Fr, 19.01. 1:00 690 m 8/8 8/8 - - -
Do, 18.01. 19:00 2400 m 8/8 7/8 - - -
Do, 18.01. 13:00 930 m 3/8 3/8 - - -
Do, 18.01. 7:00 750 m 7/8 7/8 - - -
Do, 18.01. 1:00 420 m 8/8 7/8 - - -
Mi, 17.01. 19:00 480 m 7/8 7/8 - - -
Mi, 17.01. 13:00 420 m 8/8 8/8 - - -
Ortszeit Bedeckungsgrad in Achtel und Wolkenuntergrenze
Fr, 19.01. 12:00 1(810m)
Fr, 19.01. 11:50 1(810m) 2(1500m)
Fr, 19.01. 11:40 1(1500m)
Fr, 19.01. 11:30 2(1500m)
Fr, 19.01. 11:20 2(1500m)
Fr, 19.01. 11:10 4(1500m)
Fr, 19.01. 11:00 1(1500m)
Fr, 19.01. 10:30 1(1500m)
Fr, 19.01. 10:00 keine Wolken
Fr, 19.01. 9:30 2(1500m)
Fr, 19.01. 9:00 6(1440m)
Ortszeit Luftdruck NN (hPa) Tendenz (hPa in 3 Std.)
Fr, 19.01. 7:00 1010 + 2,5
Fr, 19.01. 1:00 1005 - 0,8
Do, 18.01. 19:00 1005 + 1,4
Do, 18.01. 13:00 1001 - 2,3
Do, 18.01. 7:00 1007 - 4,3
Do, 18.01. 1:00 1014 - 0,1
Mi, 17.01. 19:00 1012 + 2,2
Mi, 17.01. 13:00 1008 + 3,3
Ortszeit Luftdruck NN (hPa) Tendenz (hPa in 3 Std.)
Fr, 19.01. 12:00 1013 + 1,6
Fr, 19.01. 11:50 1013 keine Meldung
Fr, 19.01. 11:40 1013 keine Meldung
Fr, 19.01. 11:30 1013 + 2,1
Fr, 19.01. 11:20 1013 keine Meldung
Fr, 19.01. 11:10 1013 keine Meldung
Fr, 19.01. 11:00 1013 + 2,5
Fr, 19.01. 10:30 1013 + 2,4
Fr, 19.01. 10:00 1013 + 3,0
Fr, 19.01. 9:30 1012 + 3,0
Fr, 19.01. 9:00 1012 + 3,2
Ortszeit Schneehöhe (cm)
Fr, 19.01. 7:00 0
Fr, 19.01. 1:00 0
Do, 18.01. 19:00 0
Do, 18.01. 13:00 0
Do, 18.01. 7:00 0
Do, 18.01. 1:00 0
Mi, 17.01. 19:00 0
Mi, 17.01. 13:00 0
Ortszeit Schneehöhe (cm)
Fr, 19.01. 12:00 0
Fr, 19.01. 11:50 0
Fr, 19.01. 11:40 0
Fr, 19.01. 11:30 0
Fr, 19.01. 11:20 0
Fr, 19.01. 11:10 0
Fr, 19.01. 11:00 0
Fr, 19.01. 10:30 0
Fr, 19.01. 10:00 0
Fr, 19.01. 9:30 0
Fr, 19.01. 9:00 0
Link zu dieser Seite / Seite empfehlen

Das Wetter in ...